sensor_id;sensor_type;location;lat;lon;timestamp;pressure;altitude;pressure_sealevel;temperature;humidity
74329;BME280;62749;51.982;5.916;2023-08-08T00:00:45;101202.56;;;15.04;93.89
74329;BME280;62749;51.982;5.916;2023-08-08T00:03:14;101193.84;;;15.02;93.27
74329;BME280;62749;51.982;5.916;2023-08-08T00:05:43;101196.50;;;15.02;92.75
74329;BME280;62749;51.982;5.916;2023-08-08T00:08:13;101195.88;;;14.97;94.90
74329;BME280;62749;51.982;5.916;2023-08-08T00:10:42;101191.25;;;15.01;93.15
74329;BME280;62749;51.982;5.916;2023-08-08T00:13:11;101193.06;;;15.00;93.02
74329;BME280;62749;51.982;5.916;2023-08-08T00:15:43;101195.72;;;15.00;93.16
74329;BME280;62749;51.982;5.916;2023-08-08T00:18:13;101191.19;;;15.02;93.70
74329;BME280;62749;51.982;5.916;2023-08-08T00:20:43;101190.31;;;15.02;93.46
74329;BME280;62749;51.982;5.916;2023-08-08T00:23:12;101185.06;;;15.00;94.28
74329;BME280;62749;51.982;5.916;2023-08-08T00:25:42;101183.59;;;14.95;95.82
74329;BME280;62749;51.982;5.916;2023-08-08T00:28:16;101185.13;;;14.99;94.89
74329;BME280;62749;51.982;5.916;2023-08-08T00:30:48;101180.59;;;15.01;92.66
74329;BME280;62749;51.982;5.916;2023-08-08T00:33:17;101179.91;;;14.97;92.16
74329;BME280;62749;51.982;5.916;2023-08-08T00:35:47;101182.41;;;15.00;92.59
74329;BME280;62749;51.982;5.916;2023-08-08T00:38:16;101181.28;;;15.04;92.10
74329;BME280;62749;51.982;5.916;2023-08-08T00:40:46;101171.41;;;15.07;91.17
74329;BME280;62749;51.982;5.916;2023-08-08T00:43:15;101180.53;;;15.02;91.21
74329;BME280;62749;51.982;5.916;2023-08-08T00:45:47;101171.84;;;14.99;90.95
74329;BME280;62749;51.982;5.916;2023-08-08T00:48:17;101176.16;;;15.01;91.26
74329;BME280;62749;51.982;5.916;2023-08-08T00:50:48;101180.34;;;15.06;91.86
74329;BME280;62749;51.982;5.916;2023-08-08T00:53:19;101168.69;;;15.08;91.08
74329;BME280;62749;51.982;5.916;2023-08-08T00:55:49;101160.78;;;15.07;91.57
74329;BME280;62749;51.982;5.916;2023-08-08T00:58:20;101162.59;;;15.06;91.27
74329;BME280;62749;51.982;5.916;2023-08-08T01:00:52;101161.66;;;15.07;91.13
74329;BME280;62749;51.982;5.916;2023-08-08T01:03:23;101162.50;;;15.08;90.91
74329;BME280;62749;51.982;5.916;2023-08-08T01:06:00;101164.31;;;15.07;91.49
74329;BME280;62749;51.982;5.916;2023-08-08T01:08:36;101165.16;;;15.08;91.12
74329;BME280;62749;51.982;5.916;2023-08-08T01:11:08;101173.91;;;15.10;91.44
74329;BME280;62749;51.982;5.916;2023-08-08T01:13:39;101172.38;;;15.06;91.81
74329;BME280;62749;51.982;5.916;2023-08-08T01:16:13;101174.09;;;15.07;92.70
74329;BME280;62749;51.982;5.916;2023-08-08T01:18:47;101166.28;;;15.03;94.16
74329;BME280;62749;51.982;5.916;2023-08-08T01:21:17;101173.50;;;15.01;94.64
74329;BME280;62749;51.982;5.916;2023-08-08T01:23:56;101171.09;;;14.97;95.78
74329;BME280;62749;51.982;5.916;2023-08-08T01:26:33;101173.66;;;14.98;96.34
74329;BME280;62749;51.982;5.916;2023-08-08T01:29:03;101158.38;;;14.86;98.35
74329;BME280;62749;51.982;5.916;2023-08-08T01:31:32;101150.00;;;14.76;100.00
74329;BME280;62749;51.982;5.916;2023-08-08T01:34:02;101146.75;;;14.71;100.00
74329;BME280;62749;51.982;5.916;2023-08-08T01:36:39;101153.31;;;14.64;100.00
74329;BME280;62749;51.982;5.916;2023-08-08T01:39:14;101155.13;;;14.63;100.00
74329;BME280;62749;51.982;5.916;2023-08-08T01:41:48;101156.84;;;14.64;100.00
74329;BME280;62749;51.982;5.916;2023-08-08T01:44:19;101160.75;;;14.57;100.00
74329;BME280;62749;51.982;5.916;2023-08-08T01:46:52;101145.72;;;14.56;100.00
74329;BME280;62749;51.982;5.916;2023-08-08T01:49:21;101142.28;;;14.54;100.00
74329;BME280;62749;51.982;5.916;2023-08-08T01:51:51;101141.34;;;14.55;100.00
74329;BME280;62749;51.982;5.916;2023-08-08T01:54:28;101148.13;;;14.61;100.00
74329;BME280;62749;51.982;5.916;2023-08-08T01:57:00;101143.94;;;14.56;100.00
74329;BME280;62749;51.982;5.916;2023-08-08T01:59:30;101149.31;;;14.55;100.00
74329;BME280;62749;51.982;5.916;2023-08-08T02:01:59;101145.56;;;14.59;100.00
74329;BME280;62749;51.982;5.916;2023-08-08T02:04:29;101140.41;;;14.56;100.00
74329;BME280;62749;51.982;5.916;2023-08-08T02:06:58;101140.25;;;14.59;100.00
74329;BME280;62749;51.982;5.916;2023-08-08T02:09:28;101140.25;;;14.59;100.00
74329;BME280;62749;51.982;5.916;2023-08-08T02:11:59;101138.22;;;14.64;100.00
74329;BME280;62749;51.982;5.916;2023-08-08T02:14:29;101131.00;;;14.66;100.00
74329;BME280;62749;51.982;5.916;2023-08-08T02:16:58;101119.69;;;14.63;100.00
74329;BME280;62749;51.982;5.916;2023-08-08T02:19:27;101118.84;;;14.62;100.00
74329;BME280;62749;51.982;5.916;2023-08-08T02:21:57;101116.97;;;14.64;100.00
74329;BME280;62749;51.982;5.916;2023-08-08T02:24:26;101122.13;;;14.67;100.00
74329;BME280;62749;51.982;5.916;2023-08-08T02:26:55;101112.25;;;14.69;100.00
74329;BME280;62749;51.982;5.916;2023-08-08T02:29:27;101103.44;;;14.69;100.00
74329;BME280;62749;51.982;5.916;2023-08-08T02:31:57;101104.28;;;14.69;100.00
74329;BME280;62749;51.982;5.916;2023-08-08T02:34:26;101108.75;;;14.69;100.00
74329;BME280;62749;51.982;5.916;2023-08-08T02:36:55;101103.44;;;14.69;99.95
74329;BME280;62749;51.982;5.916;2023-08-08T02:39:25;101109.03;;;14.63;100.00
74329;BME280;62749;51.982;5.916;2023-08-08T02:41:54;101116.09;;;14.64;100.00
74329;BME280;62749;51.982;5.916;2023-08-08T02:44:27;101093.25;;;14.60;100.00
74329;BME280;62749;51.982;5.916;2023-08-08T02:46:57;101106.22;;;14.66;100.00
74329;BME280;62749;51.982;5.916;2023-08-08T02:49:26;101104.59;;;14.63;100.00
74329;BME280;62749;51.982;5.916;2023-08-08T02:51:56;101104.75;;;14.60;100.00
74329;BME280;62749;51.982;5.916;2023-08-08T02:54:25;101098.50;;;14.61;100.00
74329;BME280;62749;51.982;5.916;2023-08-08T02:56:54;101098.75;;;14.56;100.00
74329;BME280;62749;51.982;5.916;2023-08-08T02:59:24;101094.63;;;14.51;100.00
74329;BME280;62749;51.982;5.916;2023-08-08T03:01:56;101089.91;;;14.56;100.00
74329;BME280;62749;51.982;5.916;2023-08-08T03:04:25;101094.44;;;14.54;100.00
74329;BME280;62749;51.982;5.916;2023-08-08T03:06:55;101087.34;;;14.54;100.00
74329;BME280;62749;51.982;5.916;2023-08-08T03:09:24;101090.31;;;14.48;99.58
74329;BME280;62749;51.982;5.916;2023-08-08T03:11:54;101098.53;;;14.43;99.75
74329;BME280;62749;51.982;5.916;2023-08-08T03:14:23;101094.94;;;14.45;99.92
74329;BME280;62749;51.982;5.916;2023-08-08T03:16:52;101101.13;;;14.45;100.00
74329;BME280;62749;51.982;5.916;2023-08-08T03:19:25;101104.47;;;14.49;100.00
74329;BME280;62749;51.982;5.916;2023-08-08T03:21:54;101099.00;;;14.52;100.00
74329;BME280;62749;51.982;5.916;2023-08-08T03:24:24;101100.53;;;14.56;100.00
74329;BME280;62749;51.982;5.916;2023-08-08T03:26:53;101103.03;;;14.59;100.00
74329;BME280;62749;51.982;5.916;2023-08-08T03:29:23;101090.69;;;14.58;100.00
74329;BME280;62749;51.982;5.916;2023-08-08T03:31:52;101093.09;;;14.63;100.00
74329;BME280;62749;51.982;5.916;2023-08-08T03:34:24;101087.09;;;14.59;100.00
74329;BME280;62749;51.982;5.916;2023-08-08T03:36:53;101090.59;;;14.60;100.00
74329;BME280;62749;51.982;5.916;2023-08-08T03:39:23;101092.06;;;14.65;100.00
74329;BME280;62749;51.982;5.916;2023-08-08T03:41:52;101086.75;;;14.65;100.00
74329;BME280;62749;51.982;5.916;2023-08-08T03:44:22;101082.44;;;14.63;100.00
74329;BME280;62749;51.982;5.916;2023-08-08T03:46:51;101078.69;;;14.67;100.00
74329;BME280;62749;51.982;5.916;2023-08-08T03:49:20;101075.16;;;14.66;100.00
74329;BME280;62749;51.982;5.916;2023-08-08T03:51:52;101082.41;;;14.64;100.00
74329;BME280;62749;51.982;5.916;2023-08-08T03:54:22;101078.06;;;14.62;100.00
74329;BME280;62749;51.982;5.916;2023-08-08T03:56:51;101078.00;;;14.63;100.00
74329;BME280;62749;51.982;5.916;2023-08-08T03:59:20;101078.06;;;14.62;100.00
74329;BME280;62749;51.982;5.916;2023-08-08T04:01:50;101073.53;;;14.64;100.00
74329;BME280;62749;51.982;5.916;2023-08-08T04:04:19;101076.19;;;14.64;100.00
74329;BME280;62749;51.982;5.916;2023-08-08T04:06:48;101072.84;;;14.60;100.00
74329;BME280;62749;51.982;5.916;2023-08-08T04:09:20;101073.19;;;14.54;100.00
74329;BME280;62749;51.982;5.916;2023-08-08T04:11:50;101078.34;;;14.57;100.00
74329;BME280;62749;51.982;5.916;2023-08-08T04:14:19;101081.78;;;14.59;100.00
74329;BME280;62749;51.982;5.916;2023-08-08T04:16:48;101070.19;;;14.60;100.00
74329;BME280;62749;51.982;5.916;2023-08-08T04:19:18;101065.66;;;14.62;100.00
74329;BME280;62749;51.982;5.916;2023-08-08T04:24:53;101069.25;;;14.61;100.00
74329;BME280;62749;51.982;5.916;2023-08-08T04:27:22;101069.31;;;14.60;100.00
74329;BME280;62749;51.982;5.916;2023-08-08T04:29:52;101061.59;;;14.55;100.00
74329;BME280;62749;51.982;5.916;2023-08-08T04:32:21;101056.78;;;14.46;100.00
74329;BME280;62749;51.982;5.916;2023-08-08T04:34:50;101065.38;;;14.51;100.00
74329;BME280;62749;51.982;5.916;2023-08-08T04:37:20;101064.44;;;14.52;100.00
74329;BME280;62749;51.982;5.916;2023-08-08T04:39:49;101060.81;;;14.53;100.00
74329;BME280;62749;51.982;5.916;2023-08-08T04:42:21;101065.38;;;14.51;100.00
74329;BME280;62749;51.982;5.916;2023-08-08T04:44:50;101061.78;;;14.52;100.00
74329;BME280;62749;51.982;5.916;2023-08-08T04:47:20;101075.09;;;14.52;100.00
74329;BME280;62749;51.982;5.916;2023-08-08T04:49:49;101067.78;;;14.55;100.00
74329;BME280;62749;51.982;5.916;2023-08-08T04:52:19;101065.19;;;14.54;100.00
74329;BME280;62749;51.982;5.916;2023-08-08T04:54:48;101068.72;;;14.54;100.00
74329;BME280;62749;51.982;5.916;2023-08-08T04:57:17;101059.88;;;14.54;100.00
74329;BME280;62749;51.982;5.916;2023-08-08T04:59:49;101060.75;;;14.54;100.00
74329;BME280;62749;51.982;5.916;2023-08-08T05:02:19;101064.19;;;14.56;100.00
74329;BME280;62749;51.982;5.916;2023-08-08T05:04:48;101063.31;;;14.56;100.00
74329;BME280;62749;51.982;5.916;2023-08-08T05:07:17;101056.38;;;14.53;100.00
74329;BME280;62749;51.982;5.916;2023-08-08T05:09:47;101054.56;;;14.54;100.00
74329;BME280;62749;51.982;5.916;2023-08-08T05:12:16;101052.00;;;14.52;100.00
74329;BME280;62749;51.982;5.916;2023-08-08T05:14:45;101052.78;;;14.54;100.00
74329;BME280;62749;51.982;5.916;2023-08-08T05:17:17;101052.00;;;14.52;100.00
74329;BME280;62749;51.982;5.916;2023-08-08T05:19:46;101054.50;;;14.55;100.00
74329;BME280;62749;51.982;5.916;2023-08-08T05:22:16;101047.63;;;14.51;100.00
74329;BME280;62749;51.982;5.916;2023-08-08T05:24:45;101050.81;;;14.58;100.00
74329;BME280;62749;51.982;5.916;2023-08-08T05:27:14;101048.94;;;14.60;100.00
74329;BME280;62749;51.982;5.916;2023-08-08T05:29:44;101054.00;;;14.65;100.00
74329;BME280;62749;51.982;5.916;2023-08-08T05:32:13;101052.91;;;14.69;100.00
74329;BME280;62749;51.982;5.916;2023-08-08T05:34:45;101046.66;;;14.70;100.00
74329;BME280;62749;51.982;5.916;2023-08-08T05:37:15;101052.97;;;14.67;100.00
74329;BME280;62749;51.982;5.916;2023-08-08T05:39:44;101047.34;;;14.73;100.00
74329;BME280;62749;51.982;5.916;2023-08-08T05:42:14;101049.91;;;14.75;100.00
74329;BME280;62749;51.982;5.916;2023-08-08T05:44:43;101055.91;;;14.79;100.00
74329;BME280;62749;51.982;5.916;2023-08-08T05:47:12;101057.47;;;14.83;100.00
74329;BME280;62749;51.982;5.916;2023-08-08T05:49:44;101057.19;;;14.87;100.00
74329;BME280;62749;51.982;5.916;2023-08-08T05:52:14;101060.38;;;14.94;100.00
74329;BME280;62749;51.982;5.916;2023-08-08T05:54:43;101068.59;;;15.06;100.00
74329;BME280;62749;51.982;5.916;2023-08-08T05:57:12;101065.88;;;15.07;100.00
74329;BME280;62749;51.982;5.916;2023-08-08T05:59:42;101060.63;;;15.06;100.00
74329;BME280;62749;51.982;5.916;2023-08-08T06:02:12;101071.19;;;15.07;100.00
74329;BME280;62749;51.982;5.916;2023-08-08T06:04:41;101065.19;;;15.03;100.00
74329;BME280;62749;51.982;5.916;2023-08-08T06:07:14;101068.28;;;15.12;100.00
74329;BME280;62749;51.982;5.916;2023-08-08T06:09:43;101072.38;;;15.17;100.00
74329;BME280;62749;51.982;5.916;2023-08-08T06:12:13;101071.72;;;15.14;99.75
74329;BME280;62749;51.982;5.916;2023-08-08T06:14:42;101065.06;;;15.21;99.56
74329;BME280;62749;51.982;5.916;2023-08-08T06:17:12;101071.19;;;15.23;99.50
74329;BME280;62749;51.982;5.916;2023-08-08T06:19:41;101066.91;;;15.21;98.96
74329;BME280;62749;51.982;5.916;2023-08-08T06:22:11;101067.72;;;15.21;98.07
74329;BME280;62749;51.982;5.916;2023-08-08T06:24:43;101079.13;;;15.39;97.89
74329;BME280;62749;51.982;5.916;2023-08-08T06:27:12;101072.13;;;15.53;97.64
74329;BME280;62749;51.982;5.916;2023-08-08T06:29:42;101087.66;;;15.60;96.02
74329;BME280;62749;51.982;5.916;2023-08-08T06:32:11;101079.97;;;15.56;95.45
74329;BME280;62749;51.982;5.916;2023-08-08T06:34:41;101083.28;;;15.59;94.14
74329;BME280;62749;51.982;5.916;2023-08-08T06:37:10;101088.28;;;15.65;94.03
74329;BME280;62749;51.982;5.916;2023-08-08T06:39:42;101087.22;;;15.68;93.84
74329;BME280;62749;51.982;5.916;2023-08-08T06:42:12;101086.56;;;15.64;92.61
74329;BME280;62749;51.982;5.916;2023-08-08T06:44:42;101091.16;;;15.77;92.87
74329;BME280;62749;51.982;5.916;2023-08-08T06:47:12;101094.31;;;15.84;92.07
74329;BME280;62749;51.982;5.916;2023-08-08T06:49:41;101097.06;;;15.82;91.91
74329;BME280;62749;51.982;5.916;2023-08-08T06:52:10;101098.16;;;15.94;92.77
74329;BME280;62749;51.982;5.916;2023-08-08T06:54:42;101095.41;;;15.95;91.92
74329;BME280;62749;51.982;5.916;2023-08-08T06:57:12;101096.75;;;16.03;90.49
74329;BME280;62749;51.982;5.916;2023-08-08T06:59:41;101090.88;;;16.12;90.25
74329;BME280;62749;51.982;5.916;2023-08-08T07:02:12;101086.69;;;16.22;90.15
74329;BME280;62749;51.982;5.916;2023-08-08T07:04:42;101100.59;;;16.28;88.97
74329;BME280;62749;51.982;5.916;2023-08-08T07:07:11;101089.84;;;16.29;88.54
74329;BME280;62749;51.982;5.916;2023-08-08T07:09:43;101091.25;;;16.35;86.96
74329;BME280;62749;51.982;5.916;2023-08-08T07:12:13;101094.41;;;16.41;85.97
74329;BME280;62749;51.982;5.916;2023-08-08T07:14:42;101093.75;;;16.52;87.52
74329;BME280;62749;51.982;5.916;2023-08-08T07:17:12;101082.63;;;16.46;84.08
74329;BME280;62749;51.982;5.916;2023-08-08T07:19:41;101081.78;;;16.45;83.95
74329;BME280;62749;51.982;5.916;2023-08-08T07:22:10;101087.94;;;16.46;81.04
74329;BME280;62749;51.982;5.916;2023-08-08T07:24:42;101084.41;;;16.60;82.18
74329;BME280;62749;51.982;5.916;2023-08-08T07:27:12;101084.59;;;16.71;80.27
74329;BME280;62749;51.982;5.916;2023-08-08T07:29:41;101081.53;;;16.77;79.22
74329;BME280;62749;51.982;5.916;2023-08-08T07:32:10;101080.94;;;16.86;76.42
74329;BME280;62749;51.982;5.916;2023-08-08T07:34:40;101084.19;;;16.92;73.93
74329;BME280;62749;51.982;5.916;2023-08-08T07:37:09;101082.75;;;16.86;73.36
74329;BME280;62749;51.982;5.916;2023-08-08T07:39:38;101075.59;;;17.01;73.40
74329;BME280;62749;51.982;5.916;2023-08-08T07:42:10;101072.56;;;17.07;75.13
74329;BME280;62749;51.982;5.916;2023-08-08T07:44:40;101077.88;;;17.07;72.08
74329;BME280;62749;51.982;5.916;2023-08-08T07:47:09;101070.47;;;16.98;71.53
74329;BME280;62749;51.982;5.916;2023-08-08T07:49:39;101071.53;;;16.95;70.90
74329;BME280;62749;51.982;5.916;2023-08-08T07:52:08;101081.25;;;16.96;72.30
74329;BME280;62749;51.982;5.916;2023-08-08T07:54:37;101077.81;;;16.94;73.14
74329;BME280;62749;51.982;5.916;2023-08-08T07:57:07;101069.00;;;16.92;72.36
74329;BME280;62749;51.982;5.916;2023-08-08T07:59:39;101076.38;;;17.03;71.41
74329;BME280;62749;51.982;5.916;2023-08-08T08:02:09;101072.78;;;17.17;69.92
74329;BME280;62749;51.982;5.916;2023-08-08T08:04:38;101070.38;;;17.27;70.20
74329;BME280;62749;51.982;5.916;2023-08-08T08:07:08;101069.03;;;17.34;67.92
74329;BME280;62749;51.982;5.916;2023-08-08T08:09:37;101070.88;;;17.46;68.41
74329;BME280;62749;51.982;5.916;2023-08-08T08:12:08;101072.72;;;17.59;68.59
74329;BME280;62749;51.982;5.916;2023-08-08T08:14:40;101071.03;;;17.71;68.08
74329;BME280;62749;51.982;5.916;2023-08-08T08:17:10;101082.16;;;17.77;67.35
74329;BME280;62749;51.982;5.916;2023-08-08T08:19:39;101071.69;;;17.74;64.48
74329;BME280;62749;51.982;5.916;2023-08-08T08:22:08;101064.81;;;17.57;65.35
74329;BME280;62749;51.982;5.916;2023-08-08T08:24:38;101062.25;;;17.56;64.73
74329;BME280;62749;51.982;5.916;2023-08-08T08:27:07;101065.47;;;17.61;65.93
74329;BME280;62749;51.982;5.916;2023-08-08T08:29:36;101074.25;;;17.76;66.33
74329;BME280;62749;51.982;5.916;2023-08-08T08:32:08;101072.44;;;17.76;65.07
74329;BME280;62749;51.982;5.916;2023-08-08T08:34:38;101072.53;;;17.75;64.20
74329;BME280;62749;51.982;5.916;2023-08-08T08:37:07;101059.38;;;17.72;64.58
74329;BME280;62749;51.982;5.916;2023-08-08T08:39:36;101060.16;;;17.87;64.61
74329;BME280;62749;51.982;5.916;2023-08-08T08:42:09;101065.72;;;17.97;64.98
74329;BME280;62749;51.982;5.916;2023-08-08T08:44:43;101067.00;;;17.91;63.67
74329;BME280;62749;51.982;5.916;2023-08-08T08:47:17;101073.63;;;17.85;63.17
74329;BME280;62749;51.982;5.916;2023-08-08T08:49:51;101075.66;;;17.82;64.71
74329;BME280;62749;51.982;5.916;2023-08-08T08:52:21;101067.25;;;18.01;64.05
74329;BME280;62749;51.982;5.916;2023-08-08T08:54:51;101063.09;;;18.09;61.79
74329;BME280;62749;51.982;5.916;2023-08-08T08:57:21;101062.47;;;18.06;62.95
74329;BME280;62749;51.982;5.916;2023-08-08T08:59:51;101061.69;;;18.04;64.00
74329;BME280;62749;51.982;5.916;2023-08-08T09:02:24;101056.78;;;17.98;62.69
74329;BME280;62749;51.982;5.916;2023-08-08T09:04:54;101058.38;;;18.13;64.36
74329;BME280;62749;51.982;5.916;2023-08-08T09:07:25;101058.50;;;18.12;61.99
74329;BME280;62749;51.982;5.916;2023-08-08T09:09:55;101066.53;;;18.12;62.31
74329;BME280;62749;51.982;5.916;2023-08-08T09:12:24;101061.78;;;18.02;62.21
74329;BME280;62749;51.982;5.916;2023-08-08T09:14:54;101055.94;;;17.97;59.96
74329;BME280;62749;51.982;5.916;2023-08-08T09:17:27;101072.25;;;17.92;60.03
74329;BME280;62749;51.982;5.916;2023-08-08T09:19:57;101065.56;;;18.13;60.30
74329;BME280;62749;51.982;5.916;2023-08-08T09:22:27;101067.47;;;18.11;59.49
74329;BME280;62749;51.982;5.916;2023-08-08T09:24:56;101067.69;;;18.07;59.19
74329;BME280;62749;51.982;5.916;2023-08-08T09:27:28;101059.34;;;18.12;59.78
74329;BME280;62749;51.982;5.916;2023-08-08T09:29:58;101076.88;;;18.29;58.44
74329;BME280;62749;51.982;5.916;2023-08-08T09:32:31;101070.59;;;18.17;56.95
74329;BME280;62749;51.982;5.916;2023-08-08T09:35:01;101069.81;;;18.15;56.59
74329;BME280;62749;51.982;5.916;2023-08-08T09:37:35;101070.47;;;18.32;57.52
74329;BME280;62749;51.982;5.916;2023-08-08T09:40:06;101080.28;;;18.31;55.67
74329;BME280;62749;51.982;5.916;2023-08-08T09:42:37;101083.19;;;18.28;55.85
74329;BME280;62749;51.982;5.916;2023-08-08T09:45:10;101083.50;;;18.23;56.22
74329;BME280;62749;51.982;5.916;2023-08-08T09:47:42;101077.97;;;18.39;57.00
74329;BME280;62749;51.982;5.916;2023-08-08T09:50:11;101082.84;;;18.46;56.15
74329;BME280;62749;51.982;5.916;2023-08-08T09:52:43;101077.72;;;18.55;55.25
74329;BME280;62749;51.982;5.916;2023-08-08T09:55:14;101075.47;;;18.62;56.31
74329;BME280;62749;51.982;5.916;2023-08-08T09:57:44;101079.28;;;18.71;57.39
74329;BME280;62749;51.982;5.916;2023-08-08T10:00:15;101075.47;;;18.62;57.04
74329;BME280;62749;51.982;5.916;2023-08-08T10:02:50;101082.56;;;18.88;54.92
74329;BME280;62749;51.982;5.916;2023-08-08T10:05:19;101074.63;;;18.99;55.25
74329;BME280;62749;51.982;5.916;2023-08-08T10:07:53;101065.06;;;19.08;55.25
74329;BME280;62749;51.982;5.916;2023-08-08T10:10:24;101069.03;;;19.15;55.71
74329;BME280;62749;51.982;5.916;2023-08-08T10:12:53;101077.16;;;19.13;53.05
74329;BME280;62749;51.982;5.916;2023-08-08T10:15:25;101078.03;;;19.01;55.05
74329;BME280;62749;51.982;5.916;2023-08-08T10:17:58;101090.19;;;18.94;54.98
74329;BME280;62749;51.982;5.916;2023-08-08T10:20:31;101071.00;;;18.87;56.01
74329;BME280;62749;51.982;5.916;2023-08-08T10:23:02;101077.81;;;18.91;56.65
74329;BME280;62749;51.982;5.916;2023-08-08T10:25:33;101074.75;;;18.97;56.05
74329;BME280;62749;51.982;5.916;2023-08-08T10:28:05;101085.13;;;18.89;55.28
74329;BME280;62749;51.982;5.916;2023-08-08T10:30:46;101088.34;;;18.94;53.78
74329;BME280;62749;51.982;5.916;2023-08-08T10:33:19;101082.63;;;19.12;54.24
74329;BME280;62749;51.982;5.916;2023-08-08T10:36:00;101086.25;;;19.11;53.32
74329;BME280;62749;51.982;5.916;2023-08-08T10:38:42;101088.75;;;19.01;54.71
74329;BME280;62749;51.982;5.916;2023-08-08T10:41:15;101086.59;;;19.06;55.58
74329;BME280;62749;51.982;5.916;2023-08-08T10:43:50;101085.34;;;19.23;55.07
74329;BME280;62749;51.982;5.916;2023-08-08T10:46:24;101087.78;;;19.51;54.93
74329;BME280;62749;51.982;5.916;2023-08-08T10:49:00;101077.72;;;19.90;52.86
74329;BME280;62749;51.982;5.916;2023-08-08T10:51:35;101093.56;;;19.69;52.81
74329;BME280;62749;51.982;5.916;2023-08-08T10:54:06;101088.31;;;19.56;54.54
74329;BME280;62749;51.982;5.916;2023-08-08T10:56:36;101092.97;;;19.65;54.83
74329;BME280;62749;51.982;5.916;2023-08-08T10:59:13;101090.06;;;20.04;52.24
74329;BME280;62749;51.982;5.916;2023-08-08T11:01:50;101083.53;;;20.53;51.96
74329;BME280;62749;51.982;5.916;2023-08-08T11:04:23;101090.22;;;20.36;51.56
74329;BME280;62749;51.982;5.916;2023-08-08T11:06:54;101079.22;;;20.17;50.25
74329;BME280;62749;51.982;5.916;2023-08-08T11:09:24;101082.78;;;19.82;52.11
74329;BME280;62749;51.982;5.916;2023-08-08T11:11:53;101087.50;;;19.67;52.59
74329;BME280;62749;51.982;5.916;2023-08-08T11:14:23;101084.56;;;20.05;52.55
74329;BME280;62749;51.982;5.916;2023-08-08T11:16:52;101095.09;;;21.43;50.70
74329;BME280;62749;51.982;5.916;2023-08-08T11:19:24;101093.78;;;21.70;46.88
74329;BME280;62749;51.982;5.916;2023-08-08T11:21:53;101085.81;;;20.69;48.95
74329;BME280;62749;51.982;5.916;2023-08-08T11:24:23;101076.53;;;20.28;50.15
74329;BME280;62749;51.982;5.916;2023-08-08T11:26:59;101079.50;;;19.78;51.25
74329;BME280;62749;51.982;5.916;2023-08-08T11:29:28;101080.13;;;19.57;52.63
74329;BME280;62749;51.982;5.916;2023-08-08T11:31:59;101081.25;;;19.55;52.76
74329;BME280;62749;51.982;5.916;2023-08-08T11:34:33;101081.53;;;20.10;50.61
74329;BME280;62749;51.982;5.916;2023-08-08T11:37:03;101083.19;;;19.88;50.12
74329;BME280;62749;51.982;5.916;2023-08-08T11:39:33;101084.13;;;19.52;52.06
74329;BME280;62749;51.982;5.916;2023-08-08T11:42:04;101079.34;;;19.44;53.67
74329;BME280;62749;51.982;5.916;2023-08-08T11:44:34;101085.63;;;19.31;53.56
74329;BME280;62749;51.982;5.916;2023-08-08T11:47:03;101081.94;;;19.45;52.54
74329;BME280;62749;51.982;5.916;2023-08-08T11:49:41;101074.00;;;20.49;51.63
74329;BME280;62749;51.982;5.916;2023-08-08T11:52:12;101075.91;;;21.04;50.13
74329;BME280;62749;51.982;5.916;2023-08-08T11:54:42;101070.97;;;20.77;51.11
74329;BME280;62749;51.982;5.916;2023-08-08T11:57:11;101065.19;;;20.93;50.03
74329;BME280;62749;51.982;5.916;2023-08-08T11:59:41;101062.97;;;20.98;49.49
74329;BME280;62749;51.982;5.916;2023-08-08T12:02:11;101065.72;;;20.75;48.67
74329;BME280;62749;51.982;5.916;2023-08-08T12:04:46;101075.22;;;20.79;49.13
74329;BME280;62749;51.982;5.916;2023-08-08T12:07:17;101069.47;;;20.84;50.00
74329;BME280;62749;51.982;5.916;2023-08-08T12:09:47;101066.19;;;20.92;49.04
74329;BME280;62749;51.982;5.916;2023-08-08T12:12:19;101066.19;;;20.92;47.25
74329;BME280;62749;51.982;5.916;2023-08-08T12:14:48;101062.59;;;21.14;49.50
74329;BME280;62749;51.982;5.916;2023-08-08T12:17:18;101073.09;;;21.06;48.12
74329;BME280;62749;51.982;5.916;2023-08-08T12:19:51;101064.84;;;20.63;49.71
74329;BME280;62749;51.982;5.916;2023-08-08T12:22:20;101067.19;;;20.45;51.53
74329;BME280;62749;51.982;5.916;2023-08-08T12:24:49;101060.69;;;20.82;49.94
74329;BME280;62749;51.982;5.916;2023-08-08T12:27:19;101072.22;;;21.17;49.56
74329;BME280;62749;51.982;5.916;2023-08-08T12:29:48;101061.19;;;21.31;49.15
74329;BME280;62749;51.982;5.916;2023-08-08T12:32:19;101050.09;;;21.24;47.68
74329;BME280;62749;51.982;5.916;2023-08-08T12:34:52;101054.31;;;20.94;49.94
74329;BME280;62749;51.982;5.916;2023-08-08T12:37:22;101070.22;;;21.30;48.92
74329;BME280;62749;51.982;5.916;2023-08-08T12:39:52;101055.00;;;21.73;47.54
74329;BME280;62749;51.982;5.916;2023-08-08T12:42:21;101060.97;;;21.76;47.82
74329;BME280;62749;51.982;5.916;2023-08-08T12:44:53;101072.66;;;21.87;47.34
74329;BME280;62749;51.982;5.916;2023-08-08T12:47:22;101065.38;;;21.77;47.61
74329;BME280;62749;51.982;5.916;2023-08-08T12:49:54;101065.91;;;21.71;48.98
74329;BME280;62749;51.982;5.916;2023-08-08T12:52:24;101071.06;;;21.63;48.38
74329;BME280;62749;51.982;5.916;2023-08-08T12:54:53;101063.47;;;21.36;48.42
74329;BME280;62749;51.982;5.916;2023-08-08T12:57:23;101069.13;;;21.21;50.44
74329;BME280;62749;51.982;5.916;2023-08-08T12:59:52;101067.28;;;21.33;48.78
74329;BME280;62749;51.982;5.916;2023-08-08T13:02:22;101072.59;;;21.44;47.84
74329;BME280;62749;51.982;5.916;2023-08-08T13:04:54;101086.91;;;21.01;48.69